Aeroporto :
LOGIN :

Iscrizione | Disclaimer

   EN    FR    IT 

 










Sommario :    VFR   VFR Marginale   IFR   IFR Intensivo   IFR Molto Intensivo
Visibilità : 
Base nubi : 
>= 8 km
>= 3000ft
5 / 8 km
1000 / 3000 ft
1500m / 5 km
500 / 1000 ft
800 / 1500m
200 / 500 ft
< 800m
< 200 ft
Simboli :   Temporali  Nebbia  Neve Forte  Precipitazioni Forti  Vento > 20 kt
SIGMETs :   Varie  Temporali  Ghiacco  Turbolenza  Onda orograficha  Ceneri Vulcaniche






- Altitudine del aeroporto : 147 ft
- Codice IATA : DUS


EDDL - Düsseldorf Int.

ULTIMO METAR :
  • 032050Z 31005KT CAVOK 06/M00 Q1021 NOSIG

METARs OBSOLETI :
  • 032020Z 31004KT CAVOK 06/01 Q1020 NOSIG
  • 031950Z 31004KT CAVOK 06/01 Q1020 NOSIG
  • 031920Z 31003KT CAVOK 07/01 Q1020 NOSIG
  • 031850Z 32006KT CAVOK 08/01 Q1019 NOSIG
  • 031820Z 31009KT CAVOK 08/00 Q1019 NOSIG

TAF TAF EDDL
Valido dal 03 a 18 ore il 05 a 00 ore UTC


031700Z 0318/0424 29008KT CAVOK
BECMG 0318/0320 VRB03KT
BECMG 0404/0407 15007KT



MetMap, La meteo Aeronautica in un colpo d'occhio ! - Copyright ORBIFLY Dicembre 2007 - Disclaimer

ORBIFLY MET'MAP TEAM :

Programmazione e sviluppo : Alexandra Zaïnal
Concezione : Baudouin d'Aumeries
Aiuto per la programmazione : Marc-Olivier Méhu
Supporto tecnico e logistico : Manuel Goepfert
Aiuto per la traduzione : Arnaldo La Scala

Contatto : metmap@orbifly.com




FONTI E CREDITI :

   NOAA